createdAt,value
2019-01-20T00:01:49.960Z,100.00
2019-01-20T00:04:20.182Z,97.43
2019-01-20T00:06:50.292Z,105.53
2019-01-20T00:09:20.419Z,101.37
2019-01-20T00:11:50.618Z,106.33
2019-01-20T00:14:20.714Z,102.00
2019-01-20T00:16:51.918Z,104.87
2019-01-20T00:19:22.026Z,104.00
2019-01-20T00:21:52.175Z,109.20
2019-01-20T00:24:22.414Z,101.13
2019-01-20T00:26:52.898Z,87.73
2019-01-20T00:29:23.095Z,104.43
2019-01-20T00:31:53.223Z,97.17
2019-01-20T00:34:23.430Z,89.57
2019-01-20T00:36:53.543Z,97.33
2019-01-20T00:39:23.990Z,89.80
2019-01-20T00:41:54.087Z,94.60
2019-01-20T00:44:24.210Z,91.50
2019-01-20T00:46:54.306Z,93.30
2019-01-20T00:49:24.815Z,79.20
2019-01-20T00:51:54.923Z,77.97
2019-01-20T00:54:25.239Z,79.87
2019-01-20T00:56:55.334Z,77.67
2019-01-20T00:59:25.453Z,86.97
2019-01-20T01:01:55.563Z,84.57
2019-01-20T01:04:25.662Z,73.73
2019-01-20T01:06:55.787Z,72.00
2019-01-20T01:09:25.886Z,82.03
2019-01-20T01:11:56.086Z,73.77
2019-01-20T01:14:26.189Z,80.93
2019-01-20T01:16:56.357Z,76.90
2019-01-20T01:19:26.459Z,79.53
2019-01-20T01:21:56.574Z,84.53
2019-01-20T01:24:27.111Z,82.17
2019-01-20T01:26:57.202Z,90.00
2019-01-20T01:29:27.326Z,92.60
2019-01-20T01:31:58.094Z,84.37
2019-01-20T01:34:28.322Z,77.83
2019-01-20T01:36:58.426Z,74.33
2019-01-20T01:39:28.581Z,83.50
2019-01-20T01:41:58.694Z,83.37
2019-01-20T01:44:29.214Z,68.67
2019-01-20T01:46:59.319Z,77.37
2019-01-20T01:49:29.759Z,76.77
2019-01-20T01:52:00.856Z,77.83
2019-01-20T01:54:30.942Z,81.03
2019-01-20T01:57:01.082Z,77.30
2019-01-20T01:59:43.025Z,72.43
2019-01-20T02:02:13.307Z,82.30
2019-01-20T02:04:43.408Z,73.47
2019-01-20T02:07:13.602Z,73.97
2019-01-20T02:09:43.718Z,74.03
2019-01-20T02:12:13.859Z,77.20
2019-01-20T02:14:43.967Z,64.20
2019-01-20T02:17:14.090Z,62.13
2019-01-20T02:19:44.282Z,60.00
2019-01-20T02:22:14.387Z,74.43
2019-01-20T02:24:44.570Z,76.97
2019-01-20T02:27:14.674Z,75.43
2019-01-20T02:29:44.902Z,76.77
2019-01-20T02:32:34.111Z,78.07
2019-01-20T02:35:05.778Z,70.13
2019-01-20T02:37:35.886Z,64.83
2019-01-20T02:40:07.195Z,74.93
2019-01-20T02:42:37.290Z,69.80
2019-01-20T02:45:08.614Z,69.30
2019-01-20T02:47:38.714Z,73.83
2019-01-20T02:50:10.907Z,72.60
2019-01-20T02:52:40.998Z,69.10
2019-01-20T02:55:11.121Z,63.23
2019-01-20T02:57:41.251Z,69.37
2019-01-20T03:00:14.875Z,66.67
2019-01-20T03:02:44.991Z,69.07
2019-01-20T03:05:15.410Z,85.07
2019-01-20T03:07:45.538Z,81.93
2019-01-20T03:10:17.052Z,65.83
2019-01-20T03:12:47.164Z,63.90
2019-01-20T03:15:17.270Z,77.57
2019-01-20T03:17:47.419Z,74.83
2019-01-20T03:20:20.200Z,73.80
2019-01-20T03:22:50.507Z,70.67
2019-01-20T03:25:32.035Z,64.97
2019-01-20T03:28:02.180Z,74.63
2019-01-20T03:30:32.267Z,74.13
2019-01-20T03:33:02.403Z,67.27
2019-01-20T03:35:32.527Z,66.50
2019-01-20T03:38:02.650Z,63.67
2019-01-20T03:40:32.758Z,72.33
2019-01-20T03:43:02.862Z,68.40
2019-01-20T03:45:32.982Z,69.23
2019-01-20T03:48:03.113Z,64.97
2019-01-20T03:50:33.230Z,66.30
2019-01-20T03:53:03.334Z,65.73
2019-01-20T03:55:33.458Z,69.67
2019-01-20T03:58:03.576Z,71.93
2019-01-20T04:00:33.670Z,61.63
2019-01-20T04:03:04.155Z,51.93
2019-01-20T04:05:34.233Z,57.50
2019-01-20T04:08:04.688Z,60.07
2019-01-20T04:10:34.774Z,63.40
2019-01-20T04:13:05.326Z,54.43
2019-01-20T04:15:35.594Z,60.80
2019-01-20T04:18:05.750Z,57.20
2019-01-20T04:20:35.868Z,53.83
2019-01-20T04:23:05.990Z,62.87
2019-01-20T04:25:36.191Z,55.20
2019-01-20T04:28:06.289Z,62.47
2019-01-20T04:30:36.411Z,61.70
2019-01-20T04:33:06.506Z,61.70
2019-01-20T04:35:36.650Z,62.87
2019-01-20T04:38:06.742Z,62.77
2019-01-20T04:40:36.899Z,57.23
2019-01-20T04:43:06.999Z,59.43
2019-01-20T04:45:37.129Z,63.20
2019-01-20T04:48:07.362Z,61.93
2019-01-20T04:50:37.486Z,61.53
2019-01-20T04:53:08.598Z,55.60
2019-01-20T04:55:38.902Z,62.57
2019-01-20T04:58:09.310Z,61.93
2019-01-20T05:00:39.416Z,53.70
2019-01-20T05:03:09.526Z,59.03
2019-01-20T05:05:39.665Z,59.87
2019-01-20T05:08:09.902Z,58.80
2019-01-20T05:10:40.004Z,64.97
2019-01-20T05:13:10.134Z,58.87
2019-01-20T05:15:40.264Z,62.70
2019-01-20T05:18:10.388Z,55.13
2019-01-20T05:20:40.491Z,50.90
2019-01-20T05:23:10.586Z,63.97
2019-01-20T05:25:40.790Z,59.73
2019-01-20T05:28:10.886Z,62.20
2019-01-20T05:30:41.099Z,67.67
2019-01-20T05:33:11.196Z,65.43
2019-01-20T05:35:41.322Z,62.23
2019-01-20T05:38:11.435Z,61.77
2019-01-20T05:40:41.566Z,64.10
2019-01-20T05:43:11.698Z,67.63
2019-01-20T05:45:41.795Z,53.23
2019-01-20T05:48:11.921Z,61.07
2019-01-20T05:50:42.014Z,59.93
2019-01-20T05:53:12.232Z,61.33
2019-01-20T05:55:42.325Z,55.70
2019-01-20T05:58:12.450Z,62.73
2019-01-20T06:00:42.655Z,63.10
2019-01-20T06:03:14.297Z,57.00
2019-01-20T06:05:44.375Z,57.77
2019-01-20T06:08:14.513Z,55.93
2019-01-20T06:10:44.628Z,60.57
2019-01-20T06:13:14.727Z,54.93
2019-01-20T06:15:44.991Z,62.43
2019-01-20T06:18:15.147Z,57.27
2019-01-20T06:20:45.572Z,55.90
2019-01-20T06:23:15.658Z,54.90
2019-01-20T06:25:45.946Z,53.23
2019-01-20T06:28:16.038Z,51.27
2019-01-20T06:30:46.162Z,57.83
2019-01-20T06:33:16.279Z,56.93
2019-01-20T06:35:46.419Z,56.67
2019-01-20T06:38:16.544Z,57.57
2019-01-20T06:40:46.638Z,57.57
2019-01-20T06:43:16.757Z,58.17
2019-01-20T06:45:46.854Z,55.13
2019-01-20T06:48:17.004Z,64.87
2019-01-20T06:50:47.108Z,52.07
2019-01-20T06:53:17.226Z,51.73
2019-01-20T06:55:47.352Z,54.80
2019-01-20T06:58:17.454Z,54.37
2019-01-20T07:00:47.614Z,53.90
2019-01-20T07:03:17.670Z,59.70
2019-01-20T07:05:47.886Z,56.63
2019-01-20T07:08:19.050Z,63.17
2019-01-20T07:10:49.202Z,59.27
2019-01-20T07:13:19.303Z,56.10
2019-01-20T07:15:49.410Z,57.23
2019-01-20T07:18:19.537Z,63.90
2019-01-20T07:20:49.754Z,63.70
2019-01-20T07:23:19.875Z,59.27
2019-01-20T07:25:50.198Z,64.17
2019-01-20T07:28:20.310Z,60.93
2019-01-20T07:30:50.450Z,55.77
2019-01-20T07:33:20.650Z,64.67
2019-01-20T07:35:50.798Z,58.67
2019-01-20T07:38:21.014Z,60.07
2019-01-20T07:40:51.110Z,59.27
2019-01-20T07:43:21.235Z,58.43
2019-01-20T07:45:51.362Z,58.97
2019-01-20T07:48:21.482Z,54.83
2019-01-20T07:50:51.610Z,60.60
2019-01-20T07:53:21.710Z,58.30
2019-01-20T07:55:51.839Z,60.27
2019-01-20T07:58:21.938Z,64.17
2019-01-20T08:00:52.069Z,66.67
2019-01-20T08:03:22.178Z,61.37
2019-01-20T08:05:52.294Z,64.60
2019-01-20T08:08:22.414Z,55.57
2019-01-20T08:10:52.521Z,63.00
2019-01-20T08:13:24.475Z,62.57
2019-01-20T08:15:54.378Z,64.37
2019-01-20T08:18:24.958Z,66.27
2019-01-20T08:21:14.170Z,60.20
2019-01-20T08:23:44.298Z,65.67
2019-01-20T08:26:14.733Z,63.87
2019-01-20T08:28:44.901Z,59.67
2019-01-20T08:31:15.002Z,60.83
2019-01-20T08:33:45.127Z,67.77
2019-01-20T08:36:15.250Z,73.50
2019-01-20T08:38:45.346Z,69.30
2019-01-20T08:41:15.466Z,70.20
2019-01-20T08:43:45.989Z,68.70
2019-01-20T08:46:53.655Z,64.43
2019-01-20T08:49:23.750Z,69.07
2019-01-20T08:51:53.930Z,66.63
2019-01-20T08:54:24.082Z,74.67
2019-01-20T08:56:54.202Z,70.20
2019-01-20T08:59:24.436Z,66.73
2019-01-20T09:01:54.531Z,65.63
2019-01-20T09:04:24.995Z,70.97
2019-01-20T09:06:55.105Z,64.70
2019-01-20T09:09:25.235Z,72.57
2019-01-20T09:11:55.334Z,76.83
2019-01-20T09:14:25.470Z,79.70
2019-01-20T09:16:55.594Z,76.43
2019-01-20T09:19:25.698Z,71.77
2019-01-20T09:21:55.848Z,73.83
2019-01-20T09:24:25.958Z,78.67
2019-01-20T09:26:56.493Z,72.90
2019-01-20T09:29:26.663Z,83.20
2019-01-20T09:31:57.181Z,82.10
2019-01-20T09:34:27.278Z,76.07
2019-01-20T09:36:57.414Z,78.63
2019-01-20T09:39:27.539Z,82.50
2019-01-20T09:41:57.671Z,80.43
2019-01-20T09:44:27.791Z,79.13
2019-01-20T09:46:57.894Z,76.23
2019-01-20T09:49:28.016Z,73.40
2019-01-20T09:51:58.119Z,68.07
2019-01-20T09:54:30.071Z,69.93
2019-01-20T09:57:00.174Z,72.57
2019-01-20T09:59:30.399Z,67.20
2019-01-20T10:02:00.502Z,77.00
2019-01-20T10:04:30.630Z,68.30
2019-01-20T10:07:00.758Z,67.80
2019-01-20T10:09:30.851Z,68.23
2019-01-20T10:12:00.976Z,67.70
2019-01-20T10:14:31.355Z,68.70
2019-01-20T10:17:01.660Z,68.87
2019-01-20T10:19:31.750Z,65.53
2019-01-20T10:22:02.433Z,69.07
2019-01-20T10:24:32.530Z,77.83
2019-01-20T10:27:02.663Z,74.07
2019-01-20T10:29:32.782Z,75.83
2019-01-20T10:32:02.920Z,73.93
2019-01-20T10:34:33.397Z,81.60
2019-01-20T10:37:04.922Z,76.30
2019-01-20T10:39:35.026Z,75.60
2019-01-20T10:42:05.162Z,74.60
2019-01-20T10:44:35.362Z,76.07
2019-01-20T10:47:05.650Z,75.97
2019-01-20T10:49:35.871Z,76.37
2019-01-20T10:52:06.069Z,82.50
2019-01-20T10:54:36.561Z,79.23
2019-01-20T10:57:06.662Z,76.73
2019-01-20T10:59:36.782Z,75.43
2019-01-20T11:02:07.223Z,78.43
2019-01-20T11:04:37.323Z,77.03
2019-01-20T11:07:07.444Z,75.70
2019-01-20T11:09:37.538Z,79.60
2019-01-20T11:12:07.758Z,81.47
2019-01-20T11:14:37.946Z,76.37
2019-01-20T11:17:08.474Z,80.93
2019-01-20T11:19:38.567Z,83.50
2019-01-20T11:22:08.751Z,84.53
2019-01-20T11:24:38.882Z,75.10
2019-01-20T11:27:09.010Z,77.67
2019-01-20T11:29:39.134Z,80.43
2019-01-20T11:32:09.232Z,72.57
2019-01-20T11:34:39.347Z,68.83
2019-01-20T11:37:09.450Z,75.03
2019-01-20T11:39:39.655Z,75.20
2019-01-20T11:42:10.046Z,73.37
2019-01-20T11:44:40.178Z,74.80
2019-01-20T11:47:10.278Z,66.83
2019-01-20T11:49:40.390Z,69.87
2019-01-20T11:52:10.566Z,66.80
2019-01-20T11:54:40.706Z,66.87
2019-01-20T11:57:11.617Z,67.20
2019-01-20T11:59:41.714Z,61.63
2019-01-20T12:02:11.843Z,62.60
2019-01-20T12:04:41.938Z,59.37
2019-01-20T12:07:12.074Z,66.33
2019-01-20T12:09:42.170Z,67.30
2019-01-20T12:12:12.287Z,62.00
2019-01-20T12:14:42.402Z,62.80
2019-01-20T12:17:12.501Z,60.43
2019-01-20T12:19:42.607Z,63.43
2019-01-20T12:22:12.771Z,61.90
2019-01-20T12:24:43.350Z,70.33
2019-01-20T12:27:13.442Z,63.57
2019-01-20T12:29:43.554Z,61.77
2019-01-20T12:32:13.675Z,65.00
2019-01-20T12:34:43.766Z,60.03
2019-01-20T12:37:13.906Z,60.60
2019-01-20T12:39:44.011Z,59.73
2019-01-20T12:42:14.156Z,63.87
2019-01-20T12:44:45.219Z,68.40
2019-01-20T12:47:15.355Z,62.20
2019-01-20T12:49:45.459Z,63.47
2019-01-20T12:52:16.483Z,54.93
2019-01-20T12:54:46.639Z,62.00
2019-01-20T12:57:16.771Z,58.57
2019-01-20T12:59:47.231Z,67.00
2019-01-20T13:02:17.274Z,60.37
2019-01-20T13:04:47.399Z,55.20
2019-01-20T13:07:17.619Z,56.43
2019-01-20T13:09:47.742Z,56.47
2019-01-20T13:12:17.835Z,63.93
2019-01-20T13:14:48.420Z,60.83
2019-01-20T13:17:18.586Z,67.63
2019-01-20T13:19:48.703Z,65.70
2019-01-20T13:22:18.959Z,60.17
2019-01-20T13:24:49.141Z,63.27
2019-01-20T13:27:19.253Z,58.93
2019-01-20T13:29:49.365Z,58.03
2019-01-20T13:32:19.479Z,58.33
2019-01-20T13:34:49.591Z,65.87
2019-01-20T13:37:19.718Z,62.07
2019-01-20T13:39:50.102Z,64.53
2019-01-20T13:42:20.542Z,65.67
2019-01-20T13:44:50.754Z,61.30
2019-01-20T13:47:20.962Z,59.53
2019-01-20T13:49:51.055Z,62.73
2019-01-20T13:52:21.542Z,61.73
2019-01-20T13:55:03.482Z,61.67
2019-01-20T13:57:35.148Z,60.57
2019-01-20T14:00:08.270Z,60.37
2019-01-20T14:02:38.400Z,56.20
2019-01-20T14:05:08.546Z,63.27
2019-01-20T14:07:38.666Z,62.27
2019-01-20T14:10:10.594Z,64.57
2019-01-20T14:12:40.754Z,62.97
2019-01-20T14:15:12.407Z,64.67
2019-01-20T14:17:43.887Z,59.97
2019-01-20T14:20:19.046Z,63.87
2019-01-20T14:22:49.323Z,63.67
2019-01-20T14:25:22.163Z,55.20
2019-01-20T14:27:52.327Z,59.90
2019-01-20T14:30:25.211Z,63.60
2019-01-20T14:32:55.440Z,58.43
2019-01-20T14:35:25.540Z,57.33
2019-01-20T14:37:56.315Z,63.93
2019-01-20T14:40:26.414Z,57.83
2019-01-20T14:42:56.539Z,60.10
2019-01-20T14:45:26.642Z,61.50
2019-01-20T14:47:56.774Z,59.33
2019-01-20T14:50:27.150Z,60.17
2019-01-20T14:52:57.456Z,58.60
2019-01-20T14:55:27.570Z,57.47
2019-01-20T14:57:57.672Z,58.60
2019-01-20T15:00:30.742Z,57.53
2019-01-20T15:03:00.851Z,49.97
2019-01-20T15:05:31.402Z,57.93
2019-01-20T15:08:13.199Z,52.53
2019-01-20T15:10:43.456Z,54.10
2019-01-20T15:13:13.562Z,58.70
2019-01-20T15:15:43.690Z,62.03
2019-01-20T15:18:13.826Z,56.73
2019-01-20T15:20:44.303Z,56.93
2019-01-20T15:23:14.579Z,65.63
2019-01-20T15:25:44.682Z,55.43
2019-01-20T15:28:14.821Z,69.03
2019-01-20T15:30:44.917Z,63.93
2019-01-20T15:33:15.042Z,50.60
2019-01-20T15:35:45.130Z,53.80
2019-01-20T15:38:15.251Z,56.40
2019-01-20T15:40:45.376Z,61.37
2019-01-20T15:43:15.512Z,52.37
2019-01-20T15:45:45.656Z,49.67
2019-01-20T15:48:15.746Z,49.13
2019-01-20T15:50:45.857Z,49.97
2019-01-20T15:53:15.952Z,49.50
2019-01-20T15:55:46.182Z,53.73
2019-01-20T15:58:16.290Z,52.73
2019-01-20T16:00:46.421Z,53.57
2019-01-20T16:03:16.539Z,52.73
2019-01-20T16:05:46.650Z,49.63
2019-01-20T16:08:16.779Z,50.60
2019-01-20T16:10:46.874Z,55.70
2019-01-20T16:13:17.036Z,47.90
2019-01-20T16:15:47.133Z,51.53
2019-01-20T16:18:17.278Z,49.07
2019-01-20T16:20:47.411Z,53.87
2019-01-20T16:23:17.580Z,56.07
2019-01-20T16:25:47.703Z,55.77
2019-01-20T16:28:17.814Z,52.93
2019-01-20T16:30:47.954Z,55.90
2019-01-20T16:33:18.054Z,52.17
2019-01-20T16:35:48.252Z,51.37
2019-01-20T16:38:18.382Z,53.07
2019-01-20T16:40:48.480Z,51.70
2019-01-20T16:43:18.606Z,56.57
2019-01-20T16:45:49.298Z,54.23
2019-01-20T16:48:19.758Z,50.07
2019-01-20T16:50:50.151Z,49.87
2019-01-20T16:53:20.291Z,51.57
2019-01-20T16:55:51.553Z,51.17
2019-01-20T16:58:21.778Z,50.60
2019-01-20T17:00:51.879Z,52.00
2019-01-20T17:03:22.710Z,53.67
2019-01-20T17:05:52.813Z,50.87
2019-01-20T17:08:22.986Z,56.37
2019-01-20T17:10:56.158Z,52.43
2019-01-20T17:13:26.702Z,58.03
2019-01-20T17:15:56.799Z,51.43
2019-01-20T17:18:26.987Z,52.13
2019-01-20T17:20:57.038Z,56.03
2019-01-20T17:23:27.269Z,51.97
2019-01-20T17:25:57.735Z,52.77
2019-01-20T17:28:27.842Z,50.07
2019-01-20T17:30:57.963Z,56.37
2019-01-20T17:33:28.066Z,53.57
2019-01-20T17:35:58.217Z,50.33
2019-01-20T17:38:28.321Z,50.90
2019-01-20T17:40:58.458Z,58.10
2019-01-20T17:43:28.599Z,57.37
2019-01-20T17:45:59.143Z,49.77
2019-01-20T17:48:29.242Z,55.83
2019-01-20T17:50:59.394Z,51.00
2019-01-20T17:53:29.522Z,51.17
2019-01-20T17:55:59.634Z,52.40
2019-01-20T17:58:29.763Z,55.77
2019-01-20T18:01:02.913Z,41.77
2019-01-20T18:03:33.021Z,53.30
2019-01-20T18:06:03.430Z,47.13
2019-01-20T18:08:52.675Z,42.90
2019-01-20T18:11:22.794Z,39.73
2019-01-20T18:13:53.371Z,43.37
2019-01-20T18:16:23.481Z,40.03
2019-01-20T18:18:53.621Z,41.13
2019-01-20T18:21:23.738Z,44.40
2019-01-20T18:23:53.899Z,51.67
2019-01-20T18:26:24.031Z,48.33
2019-01-20T18:28:54.134Z,54.23
2019-01-20T18:31:24.284Z,55.50
2019-01-20T18:34:06.163Z,52.53
2019-01-20T18:36:36.721Z,50.13
2019-01-20T18:39:08.694Z,47.53
2019-01-20T18:41:39.110Z,50.50
2019-01-20T18:44:09.202Z,43.50
2019-01-20T18:46:39.316Z,45.67
2019-01-20T18:49:09.450Z,47.83
2019-01-20T18:51:39.580Z,52.37
2019-01-20T18:54:09.694Z,50.63
2019-01-20T18:56:39.798Z,48.33
2019-01-20T18:59:09.918Z,52.53
2019-01-20T19:01:40.023Z,51.27
2019-01-20T19:04:10.142Z,44.90
2019-01-20T19:06:40.251Z,49.60
2019-01-20T19:09:10.383Z,46.40
2019-01-20T19:11:40.490Z,46.83
2019-01-20T19:14:10.618Z,50.60
2019-01-20T19:16:40.734Z,47.57
2019-01-20T19:19:11.130Z,49.87
2019-01-20T19:21:41.234Z,51.40
2019-01-20T19:24:11.794Z,46.50
2019-01-20T19:26:42.068Z,38.87
2019-01-20T19:29:12.163Z,38.33
2019-01-20T19:31:42.570Z,42.90
2019-01-20T19:34:12.983Z,46.83
2019-01-20T19:36:43.074Z,43.13
2019-01-20T19:39:25.895Z,45.87
2019-01-20T19:41:55.999Z,44.00
2019-01-20T19:44:26.154Z,47.80
2019-01-20T19:46:56.253Z,43.57
2019-01-20T19:49:26.387Z,47.33
2019-01-20T19:51:56.515Z,44.17
2019-01-20T19:54:26.639Z,38.37
2019-01-20T19:56:57.743Z,38.80
2019-01-20T19:59:27.846Z,40.27
2019-01-20T20:01:57.975Z,41.03
2019-01-20T20:04:28.080Z,42.07
2019-01-20T20:06:58.212Z,42.73
2019-01-20T20:09:28.313Z,39.90
2019-01-20T20:11:58.450Z,41.27
2019-01-20T20:14:28.564Z,41.50
2019-01-20T20:16:58.666Z,42.77
2019-01-20T20:19:29.850Z,43.63
2019-01-20T20:22:00.026Z,34.20
2019-01-20T20:24:30.490Z,38.40
2019-01-20T20:27:00.590Z,34.87
2019-01-20T20:29:30.727Z,35.27
2019-01-20T20:32:00.868Z,38.73
2019-01-20T20:34:31.006Z,32.57
2019-01-20T20:37:01.118Z,32.50
2019-01-20T20:39:31.225Z,31.83
2019-01-20T20:42:01.354Z,34.10
2019-01-20T20:44:31.488Z,35.87
2019-01-20T20:47:01.664Z,34.83
2019-01-20T20:49:31.758Z,35.30
2019-01-20T20:52:01.914Z,40.10
2019-01-20T20:54:35.403Z,36.10
2019-01-20T20:57:03.780Z,33.70
2019-01-20T20:59:33.874Z,33.43
2019-01-20T21:02:04.020Z,34.03
2019-01-20T21:04:34.118Z,34.97
2019-01-20T21:07:04.372Z,33.33
2019-01-20T21:09:34.495Z,31.47
2019-01-20T21:12:04.687Z,33.70
2019-01-20T21:14:34.807Z,29.07
2019-01-20T21:17:04.911Z,33.37
2019-01-20T21:19:35.058Z,27.73
2019-01-20T21:22:05.161Z,29.63
2019-01-20T21:24:35.342Z,33.03
2019-01-20T21:27:05.479Z,29.17
2019-01-20T21:29:35.607Z,33.17
2019-01-20T21:32:05.728Z,28.93
2019-01-20T21:34:35.826Z,29.20
2019-01-20T21:37:05.946Z,35.03
2019-01-20T21:39:36.051Z,33.13
2019-01-20T21:42:06.194Z,33.10
2019-01-20T21:44:36.295Z,30.97
2019-01-20T21:47:06.426Z,32.23
2019-01-20T21:49:36.551Z,30.67
2019-01-20T21:52:06.638Z,34.40
2019-01-20T21:54:36.786Z,33.70
2019-01-20T21:57:06.934Z,37.00
2019-01-20T21:59:37.278Z,33.03
2019-01-20T22:02:07.374Z,33.23
2019-01-20T22:04:38.626Z,31.80
2019-01-20T22:07:08.725Z,32.80
2019-01-20T22:09:38.891Z,34.67
2019-01-20T22:12:08.990Z,33.10
2019-01-20T22:14:39.111Z,33.47
2019-01-20T22:17:09.226Z,30.93
2019-01-20T22:19:39.322Z,30.77
2019-01-20T22:22:09.445Z,33.67
2019-01-20T22:24:39.602Z,32.03
2019-01-20T22:27:09.745Z,31.47
2019-01-20T22:29:39.851Z,33.03
2019-01-20T22:32:09.987Z,26.73
2019-01-20T22:34:40.086Z,29.63
2019-01-20T22:37:10.210Z,32.37
2019-01-20T22:39:40.335Z,28.93
2019-01-20T22:42:10.454Z,27.57
2019-01-20T22:44:40.579Z,29.53
2019-01-20T22:47:10.698Z,31.20
2019-01-20T22:49:40.815Z,34.43
2019-01-20T22:52:10.914Z,31.03
2019-01-20T22:54:41.035Z,30.50
2019-01-20T22:57:11.130Z,29.23
2019-01-20T22:59:41.268Z,30.90
2019-01-20T23:02:11.370Z,29.87
2019-01-20T23:04:41.498Z,30.37
2019-01-20T23:07:11.676Z,28.57
2019-01-20T23:09:41.822Z,26.57
2019-01-20T23:12:11.942Z,31.50
2019-01-20T23:14:42.046Z,32.90
2019-01-20T23:17:12.624Z,31.10
2019-01-20T23:19:42.726Z,31.27
2019-01-20T23:22:12.894Z,29.00
2019-01-20T23:24:43.122Z,29.40
2019-01-20T23:27:13.259Z,30.57
2019-01-20T23:29:43.382Z,28.60
2019-01-20T23:32:13.471Z,31.03
2019-01-20T23:34:44.676Z,31.80
2019-01-20T23:37:15.971Z,31.17
2019-01-20T23:39:46.186Z,28.03
2019-01-20T23:42:16.279Z,32.50
2019-01-20T23:44:46.379Z,29.87
2019-01-20T23:47:16.495Z,35.40
2019-01-20T23:49:46.585Z,33.73
2019-01-20T23:52:16.798Z,33.27
2019-01-20T23:54:46.899Z,35.40
2019-01-20T23:57:17.038Z,35.43
2019-01-20T23:59:47.138Z,38.10
